Terminal Aerodrome Forecast
Issued by NWS

Home | Current Version | Previous Version | Text Only | Print | Product List | Glossary On
Versions: 1 2 3 4 5 6 7 8 9 10 11 12 13
840
FTUS44 KLIX 160520
TAFMSY
TAF
KMSY 160520Z 1606/1712 02006KT P6SM BKN130 BKN200
     FM162000 08007KT P6SM BKN070 BKN150
     FM170100 09007KT P6SM BKN025 BKN120
     FM170400 09007KT P6SM BKN015 BKN110
     FM170700 11009KT P6SM BKN010 BKN050
     FM170900 13008KT P6SM BKN010 BKN025=

USA.gov is the U.S. government's official web portal to all federal, state and local government web resources and services.